sensor_id;sensor_type;location;lat;lon;timestamp;pressure;altitude;pressure_sealevel;temperature;humidity
60228;BME280;46091;46.512;6.626;2022-11-23T06:13:09;95594.34;;;9.30;64.84
60228;BME280;46091;46.512;6.626;2022-11-23T06:15:12;95604.25;;;9.60;64.54
60228;BME280;46091;46.512;6.626;2022-11-23T06:17:15;95597.19;;;9.79;63.83
60228;BME280;46091;46.512;6.626;2022-11-23T06:19:18;95605.97;;;9.98;63.85
60228;BME280;46091;46.512;6.626;2022-11-23T06:21:21;95609.09;;;10.06;63.35
60228;BME280;46091;46.512;6.626;2022-11-23T06:23:24;95603.09;;;10.17;62.81
60228;BME280;46091;46.512;6.626;2022-11-23T06:25:26;95605.28;;;10.27;62.96
60228;BME280;46091;46.512;6.626;2022-11-23T06:27:29;95605.78;;;10.36;62.78
60228;BME280;46091;46.512;6.626;2022-11-23T06:29:33;95608.38;;;10.42;62.19
60228;BME280;46091;46.512;6.626;2022-11-23T06:31:36;95607.13;;;10.45;62.40
60228;BME280;46091;46.512;6.626;2022-11-23T06:33:39;95609.53;;;10.46;62.22
60228;BME280;46091;46.512;6.626;2022-11-23T06:35:51;95616.44;;;10.47;62.28
60228;BME280;46091;46.512;6.626;2022-11-23T06:37:54;95620.69;;;10.48;62.22
60228;BME280;46091;46.512;6.626;2022-11-23T06:39:57;95620.25;;;10.52;61.86
60228;BME280;46091;46.512;6.626;2022-11-23T06:42:00;95625.53;;;10.52;62.00
60228;BME280;46091;46.512;6.626;2022-11-23T06:44:23;95639.13;;;10.55;61.90
60228;BME280;46091;46.512;6.626;2022-11-23T06:46:27;95641.09;;;10.60;61.63
60228;BME280;46091;46.512;6.626;2022-11-23T06:48:30;95641.91;;;10.60;61.47
60228;BME280;46091;46.512;6.626;2022-11-23T06:50:33;95643.50;;;10.61;61.35
60228;BME280;46091;46.512;6.626;2022-11-23T06:52:36;95646.53;;;10.65;61.08
60228;BME280;46091;46.512;6.626;2022-11-23T06:54:38;95647.53;;;10.64;61.18
60228;BME280;46091;46.512;6.626;2022-11-23T06:56:41;95649.19;;;10.65;61.00
60228;BME280;46091;46.512;6.626;2022-11-23T06:58:44;95649.19;;;10.65;61.29
60228;BME280;46091;46.512;6.626;2022-11-23T07:00:47;95658.72;;;10.66;61.15
60228;BME280;46091;46.512;6.626;2022-11-23T07:02:52;95657.91;;;10.65;60.81
60228;BME280;46091;46.512;6.626;2022-11-23T07:04:55;95659.88;;;10.70;61.05
60228;BME280;46091;46.512;6.626;2022-11-23T07:06:58;95658.50;;;10.67;60.54
60228;BME280;46091;46.512;6.626;2022-11-23T07:09:01;95663.56;;;10.69;60.76
60228;BME280;46091;46.512;6.626;2022-11-23T07:11:04;95668.84;;;10.69;60.49
60228;BME280;46091;46.512;6.626;2022-11-23T07:13:08;95670.81;;;10.73;60.27
60228;BME280;46091;46.512;6.626;2022-11-23T07:15:12;95667.38;;;10.73;60.39
60228;BME280;46091;46.512;6.626;2022-11-23T07:17:15;95667.75;;;10.76;60.14
60228;BME280;46091;46.512;6.626;2022-11-23T07:19:20;95666.09;;;10.75;60.36
60228;BME280;46091;46.512;6.626;2022-11-23T07:21:23;95674.41;;;10.79;60.16
60228;BME280;46091;46.512;6.626;2022-11-23T07:23:26;95666.03;;;10.82;60.11
60228;BME280;46091;46.512;6.626;2022-11-23T07:25:30;95668.69;;;10.82;60.09
60228;BME280;46091;46.512;6.626;2022-11-23T07:27:33;95666.84;;;10.83;60.13
60228;BME280;46091;46.512;6.626;2022-11-23T07:29:37;95667.66;;;10.83;60.22
60228;BME280;46091;46.512;6.626;2022-11-23T07:31:40;95664.44;;;10.81;60.07
60228;BME280;46091;46.512;6.626;2022-11-23T07:33:43;95675.81;;;10.82;60.22
60228;BME280;46091;46.512;6.626;2022-11-23T07:35:48;95678.22;;;10.83;59.93
60228;BME280;46091;46.512;6.626;2022-11-23T07:37:51;95671.91;;;10.84;59.96
60228;BME280;46091;46.512;6.626;2022-11-23T07:39:53;95672.28;;;10.88;59.68
60228;BME280;46091;46.512;6.626;2022-11-23T07:41:59;95677.59;;;10.88;59.80
60228;BME280;46091;46.512;6.626;2022-11-23T07:44:21;95679.78;;;10.91;59.41
60228;BME280;46091;46.512;6.626;2022-11-23T07:46:24;95682.66;;;10.89;59.48
60228;BME280;46091;46.512;6.626;2022-11-23T07:48:27;95678.16;;;10.90;59.27
60228;BME280;46091;46.512;6.626;2022-11-23T07:50:37;95678.16;;;10.90;59.55
60228;BME280;46091;46.512;6.626;2022-11-23T07:52:42;95678.97;;;10.90;59.41
60228;BME280;46091;46.512;6.626;2022-11-23T07:54:45;95676.75;;;10.87;59.39
60228;BME280;46091;46.512;6.626;2022-11-23T07:56:47;95678.59;;;10.87;59.60
60228;BME280;46091;46.512;6.626;2022-11-23T07:58:51;95674.56;;;10.84;59.61
60228;BME280;46091;46.512;6.626;2022-11-23T08:00:54;95681.69;;;10.84;59.48
60228;BME280;46091;46.512;6.626;2022-11-23T08:02:57;95681.44;;;10.85;59.37
60228;BME280;46091;46.512;6.626;2022-11-23T08:05:21;95686.75;;;10.85;59.05
60228;BME280;46091;46.512;6.626;2022-11-23T08:07:23;95680.28;;;10.81;59.31
60228;BME280;46091;46.512;6.626;2022-11-23T08:09:28;95681.91;;;10.82;58.96
60228;BME280;46091;46.512;6.626;2022-11-23T08:11:31;95690.06;;;10.81;59.19
60228;BME280;46091;46.512;6.626;2022-11-23T08:13:34;95688.44;;;10.79;59.23
60228;BME280;46091;46.512;6.626;2022-11-23T08:15:37;95689.84;;;10.82;59.06
60228;BME280;46091;46.512;6.626;2022-11-23T08:17:40;95693.28;;;10.83;59.09
60228;BME280;46091;46.512;6.626;2022-11-23T08:19:43;95695.69;;;10.84;58.92
60228;BME280;46091;46.512;6.626;2022-11-23T08:21:46;95692.84;;;10.86;58.92
60228;BME280;46091;46.512;6.626;2022-11-23T08:23:49;95705.25;;;10.85;58.62
60228;BME280;46091;46.512;6.626;2022-11-23T08:25:53;95705.25;;;10.85;58.56
60228;BME280;46091;46.512;6.626;2022-11-23T08:27:57;95697.91;;;10.87;58.83
60228;BME280;46091;46.512;6.626;2022-11-23T08:30:02;95707.09;;;10.85;58.87
60228;BME280;46091;46.512;6.626;2022-11-23T08:32:05;95708.47;;;10.87;58.63
60228;BME280;46091;46.512;6.626;2022-11-23T08:34:08;95713.75;;;10.87;58.76
60228;BME280;46091;46.512;6.626;2022-11-23T08:36:11;95709.31;;;10.88;58.51
60228;BME280;46091;46.512;6.626;2022-11-23T08:38:14;95718.47;;;10.85;58.73
60228;BME280;46091;46.512;6.626;2022-11-23T08:40:19;95719.88;;;10.88;58.44
60228;BME280;46091;46.512;6.626;2022-11-23T08:42:27;95724.34;;;10.87;58.36
60228;BME280;46091;46.512;6.626;2022-11-23T08:44:30;95723.34;;;10.88;58.37
60228;BME280;46091;46.512;6.626;2022-11-23T08:46:33;95727.13;;;10.92;58.20
60228;BME280;46091;46.512;6.626;2022-11-23T08:48:36;95731.75;;;10.97;58.20
60228;BME280;46091;46.512;6.626;2022-11-23T08:50:39;95729.50;;;11.00;58.48
60228;BME280;46091;46.512;6.626;2022-11-23T08:52:42;95732.72;;;11.02;58.26
60228;BME280;46091;46.512;6.626;2022-11-23T08:54:45;95721.13;;;11.03;57.99
60228;BME280;46091;46.512;6.626;2022-11-23T08:56:48;95722.72;;;11.04;58.28
60228;BME280;46091;46.512;6.626;2022-11-23T08:58:52;95727.44;;;11.02;58.02
60228;BME280;46091;46.512;6.626;2022-11-23T09:00:55;95726.84;;;11.00;58.25
60228;BME280;46091;46.512;6.626;2022-11-23T09:02:58;95733.97;;;11.00;57.88
60228;BME280;46091;46.512;6.626;2022-11-23T09:05:01;95736.97;;;11.03;58.03
60228;BME280;46091;46.512;6.626;2022-11-23T09:07:05;95728.38;;;11.08;57.94
60228;BME280;46091;46.512;6.626;2022-11-23T09:09:09;95730.38;;;11.13;57.86
60228;BME280;46091;46.512;6.626;2022-11-23T09:11:12;95727.03;;;11.17;57.54
60228;BME280;46091;46.512;6.626;2022-11-23T09:13:15;95726.69;;;11.14;57.82
60228;BME280;46091;46.512;6.626;2022-11-23T09:15:19;95729.09;;;11.15;57.77
60228;BME280;46091;46.512;6.626;2022-11-23T09:17:22;95727.28;;;11.16;57.72
60228;BME280;46091;46.512;6.626;2022-11-23T09:19:25;95735.22;;;11.16;57.89
60228;BME280;46091;46.512;6.626;2022-11-23T09:21:28;95735.22;;;11.16;57.87
60228;BME280;46091;46.512;6.626;2022-11-23T09:23:33;95735.22;;;11.16;57.57
60228;BME280;46091;46.512;6.626;2022-11-23T09:25:36;95731.53;;;11.17;57.31
60228;BME280;46091;46.512;6.626;2022-11-23T09:27:39;95738.44;;;11.18;57.53
60228;BME280;46091;46.512;6.626;2022-11-23T09:29:42;95729.91;;;11.16;57.48
60228;BME280;46091;46.512;6.626;2022-11-23T09:31:46;95735.22;;;11.16;57.27
60228;BME280;46091;46.512;6.626;2022-11-23T09:33:51;95739.13;;;11.13;57.62
60228;BME280;46091;46.512;6.626;2022-11-23T09:35:57;95736.69;;;11.12;57.43
60228;BME280;46091;46.512;6.626;2022-11-23T09:38:00;95738.06;;;11.14;57.50
60228;BME280;46091;46.512;6.626;2022-11-23T09:40:04;95741.53;;;11.15;57.38
60228;BME280;46091;46.512;6.626;2022-11-23T09:42:32;95736.00;;;11.16;57.23
60228;BME280;46091;46.512;6.626;2022-11-23T09:44:57;95737.41;;;11.19;57.09
60228;BME280;46091;46.512;6.626;2022-11-23T09:47:18;95739.00;;;11.20;57.15
60228;BME280;46091;46.512;6.626;2022-11-23T09:49:31;95734.75;;;11.19;57.05
60228;BME280;46091;46.512;6.626;2022-11-23T09:51:36;95730.72;;;11.16;57.25
60228;BME280;46091;46.512;6.626;2022-11-23T09:53:44;95729.47;;;11.19;56.96
60228;BME280;46091;46.512;6.626;2022-11-23T09:55:49;95730.50;;;11.18;57.07
60228;BME280;46091;46.512;6.626;2022-11-23T09:57:58;95726.81;;;11.19;57.01
60228;BME280;46091;46.512;6.626;2022-11-23T10:00:05;95729.47;;;11.19;56.92
60228;BME280;46091;46.512;6.626;2022-11-23T10:02:17;95723.13;;;11.20;56.91
60228;BME280;46091;46.512;6.626;2022-11-23T10:04:21;95724.56;;;11.22;56.85
60228;BME280;46091;46.512;6.626;2022-11-23T10:06:28;95722.25;;;11.26;56.74
60228;BME280;46091;46.512;6.626;2022-11-23T10:08:39;95728.94;;;11.28;56.71
60228;BME280;46091;46.512;6.626;2022-11-23T10:10:53;95719.38;;;11.27;56.81
60228;BME280;46091;46.512;6.626;2022-11-23T10:13:10;95718.72;;;11.32;56.82
60228;BME280;46091;46.512;6.626;2022-11-23T10:15:22;95715.94;;;11.27;56.66
60228;BME280;46091;46.512;6.626;2022-11-23T10:17:39;95715.13;;;11.26;56.71
60228;BME280;46091;46.512;6.626;2022-11-23T10:20:00;95712.72;;;11.25;56.55
60228;BME280;46091;46.512;6.626;2022-11-23T10:22:11;95713.53;;;11.25;56.28
60228;BME280;46091;46.512;6.626;2022-11-23T10:24:19;95708.47;;;11.24;56.31
60228;BME280;46091;46.512;6.626;2022-11-23T10:26:28;95711.91;;;11.24;56.44
60228;BME280;46091;46.512;6.626;2022-11-23T10:28:38;95710.06;;;11.25;56.38
60228;BME280;46091;46.512;6.626;2022-11-23T10:30:41;95697.66;;;11.25;56.47
60228;BME280;46091;46.512;6.626;2022-11-23T10:32:49;95706.97;;;11.28;56.30
60228;BME280;46091;46.512;6.626;2022-11-23T10:35:00;95713.88;;;11.29;56.17
60228;BME280;46091;46.512;6.626;2022-11-23T10:37:08;95703.28;;;11.29;56.22
60228;BME280;46091;46.512;6.626;2022-11-23T10:39:20;95702.25;;;11.30;56.19
60228;BME280;46091;46.512;6.626;2022-11-23T10:41:24;95706.97;;;11.28;56.27
60228;BME280;46091;46.512;6.626;2022-11-23T10:43:30;95699.25;;;11.26;55.81
60228;BME280;46091;46.512;6.626;2022-11-23T10:45:35;95705.94;;;11.29;55.90
60228;BME280;46091;46.512;6.626;2022-11-23T10:47:41;95696.53;;;11.33;55.65
60228;BME280;46091;46.512;6.626;2022-11-23T10:49:56;95700.56;;;11.35;55.98
60228;BME280;46091;46.512;6.626;2022-11-23T10:52:01;95697.13;;;11.35;55.85
60228;BME280;46091;46.512;6.626;2022-11-23T10:54:16;95696.66;;;11.38;55.56
60228;BME280;46091;46.512;6.626;2022-11-23T10:56:21;95696.88;;;11.36;55.74
60228;BME280;46091;46.512;6.626;2022-11-23T10:58:26;95703.09;;;11.42;55.38
60228;BME280;46091;46.512;6.626;2022-11-23T11:00:29;95694.94;;;11.44;55.41
60228;BME280;46091;46.512;6.626;2022-11-23T11:02:38;95703.09;;;11.42;55.24
60228;BME280;46091;46.512;6.626;2022-11-23T11:04:42;95695.78;;;11.44;55.03
60228;BME280;46091;46.512;6.626;2022-11-23T11:06:46;95690.47;;;11.44;55.43
60228;BME280;46091;46.512;6.626;2022-11-23T11:08:50;95692.09;;;11.45;55.23
60228;BME280;46091;46.512;6.626;2022-11-23T11:10:57;95702.22;;;11.48;55.27
60228;BME280;46091;46.512;6.626;2022-11-23T11:13:00;95687.94;;;11.49;55.06
60228;BME280;46091;46.512;6.626;2022-11-23T11:15:15;95687.16;;;11.49;54.94
60228;BME280;46091;46.512;6.626;2022-11-23T11:17:24;95689.34;;;11.52;54.91
60228;BME280;46091;46.512;6.626;2022-11-23T11:19:29;95695.19;;;11.54;55.10
60228;BME280;46091;46.512;6.626;2022-11-23T11:21:34;95691.97;;;11.52;54.77
60228;BME280;46091;46.512;6.626;2022-11-23T11:23:50;95686.69;;;11.52;54.86
60228;BME280;46091;46.512;6.626;2022-11-23T11:26:06;95681.16;;;11.53;54.57
60228;BME280;46091;46.512;6.626;2022-11-23T11:28:19;95680.94;;;11.55;54.69
60228;BME280;46091;46.512;6.626;2022-11-23T11:30:24;95684.41;;;11.55;54.52
60228;BME280;46091;46.512;6.626;2022-11-23T11:32:37;95685.41;;;11.54;54.34
60228;BME280;46091;46.512;6.626;2022-11-23T11:34:44;95684.19;;;11.57;54.74
60228;BME280;46091;46.512;6.626;2022-11-23T11:36:55;95673.59;;;11.57;54.41
60228;BME280;46091;46.512;6.626;2022-11-23T11:39:06;95682.56;;;11.56;54.33
60228;BME280;46091;46.512;6.626;2022-11-23T11:41:20;95682.69;;;11.61;54.18
60228;BME280;46091;46.512;6.626;2022-11-23T11:43:28;95689.25;;;11.58;54.05
60228;BME280;46091;46.512;6.626;2022-11-23T11:45:43;95685.56;;;11.59;54.19
60228;BME280;46091;46.512;6.626;2022-11-23T11:48:11;95682.47;;;11.62;54.07
60228;BME280;46091;46.512;6.626;2022-11-23T11:50:20;95676.50;;;11.67;54.04
60228;BME280;46091;46.512;6.626;2022-11-23T11:52:34;95686.28;;;11.66;54.03
60228;BME280;46091;46.512;6.626;2022-11-23T11:54:47;95689.50;;;11.69;53.82
60228;BME280;46091;46.512;6.626;2022-11-23T11:56:54;95684.78;;;11.71;53.91
60228;BME280;46091;46.512;6.626;2022-11-23T11:59:04;95682.72;;;11.73;53.75
60228;BME280;46091;46.512;6.626;2022-11-23T12:01:20;95682.72;;;11.73;53.36
60228;BME280;46091;46.512;6.626;2022-11-23T12:03:31;95679.59;;;11.76;53.76
60228;BME280;46091;46.512;6.626;2022-11-23T12:05:43;95671.66;;;11.76;53.24
60228;BME280;46091;46.512;6.626;2022-11-23T12:07:51;95678.00;;;11.75;53.52
60228;BME280;46091;46.512;6.626;2022-11-23T12:10:04;95674.09;;;11.77;53.54
60228;BME280;46091;46.512;6.626;2022-11-23T12:12:13;95681.63;;;11.80;53.23
60228;BME280;46091;46.512;6.626;2022-11-23T12:14:18;95673.44;;;11.82;53.35
60228;BME280;46091;46.512;6.626;2022-11-23T12:16:26;95675.06;;;11.83;53.04
60228;BME280;46091;46.512;6.626;2022-11-23T12:18:42;95676.91;;;11.82;53.32
60228;BME280;46091;46.512;6.626;2022-11-23T12:20:56;95678.28;;;11.85;52.90
60228;BME280;46091;46.512;6.626;2022-11-23T12:23:11;95678.03;;;11.86;53.05
60228;BME280;46091;46.512;6.626;2022-11-23T12:25:28;95668.25;;;11.87;53.20
60228;BME280;46091;46.512;6.626;2022-11-23T12:27:42;95666.41;;;11.87;53.06
60228;BME280;46091;46.512;6.626;2022-11-23T12:30:00;95669.06;;;11.87;52.92
60228;BME280;46091;46.512;6.626;2022-11-23T12:32:13;95660.88;;;11.89;53.11
60228;BME280;46091;46.512;6.626;2022-11-23T12:34:34;95659.88;;;11.90;52.95
60228;BME280;46091;46.512;6.626;2022-11-23T12:39:26;95656.19;;;11.91;52.60
60228;BME280;46091;46.512;6.626;2022-11-23T12:41:46;95650.91;;;11.91;52.59
60228;BME280;46091;46.512;6.626;2022-11-23T12:44:12;95657.56;;;11.93;52.75
60228;BME280;46091;46.512;6.626;2022-11-23T12:46:23;95660.44;;;11.92;52.65
60228;BME280;46091;46.512;6.626;2022-11-23T12:48:48;95657.22;;;11.90;52.58
60228;BME280;46091;46.512;6.626;2022-11-23T12:50:58;95663.09;;;11.92;52.57
60228;BME280;46091;46.512;6.626;2022-11-23T12:53:21;95658.38;;;11.94;52.78
60228;BME280;46091;46.512;6.626;2022-11-23T12:55:37;95643.28;;;11.94;52.44
60228;BME280;46091;46.512;6.626;2022-11-23T12:57:51;95649.63;;;11.93;52.25
60228;BME280;46091;46.512;6.626;2022-11-23T13:00:00;95644.00;;;11.90;52.28
60228;BME280;46091;46.512;6.626;2022-11-23T13:02:10;95649.50;;;11.88;52.44
60228;BME280;46091;46.512;6.626;2022-11-23T13:07:16;95645.38;;;11.92;52.59
60228;BME280;46091;46.512;6.626;2022-11-23T13:10:03;95657.56;;;11.93;52.63
60228;BME280;46091;46.512;6.626;2022-11-23T13:12:23;95654.13;;;11.93;52.32
60228;BME280;46091;46.512;6.626;2022-11-23T13:14:38;95644.91;;;11.95;52.20
60228;BME280;46091;46.512;6.626;2022-11-23T13:17:05;95644.09;;;11.95;52.17
60228;BME280;46091;46.512;6.626;2022-11-23T13:19:23;95651.47;;;11.93;52.11
60228;BME280;46091;46.512;6.626;2022-11-23T13:21:33;95648.81;;;11.93;52.26
60228;BME280;46091;46.512;6.626;2022-11-23T13:23:38;95654.13;;;11.93;52.42
60228;BME280;46091;46.512;6.626;2022-11-23T13:26:12;95645.00;;;11.89;52.41
60228;BME280;46091;46.512;6.626;2022-11-23T13:28:28;95646.03;;;11.88;52.21
60228;BME280;46091;46.512;6.626;2022-11-23T13:30:35;95650.28;;;11.89;52.37
60228;BME280;46091;46.512;6.626;2022-11-23T13:33:00;95655.59;;;11.89;52.41
60228;BME280;46091;46.512;6.626;2022-11-23T13:38:17;95669.88;;;11.88;52.38
60228;BME280;46091;46.512;6.626;2022-11-23T13:40:23;95675.16;;;11.88;52.25
60228;BME280;46091;46.512;6.626;2022-11-23T13:42:26;95671.38;;;11.84;52.14
60228;BME280;46091;46.512;6.626;2022-11-23T13:44:33;95687.84;;;11.86;52.35
60228;BME280;46091;46.512;6.626;2022-11-23T13:46:37;95686.22;;;11.85;52.10
60228;BME280;46091;46.512;6.626;2022-11-23T13:48:42;95678.28;;;11.85;52.30
60228;BME280;46091;46.512;6.626;2022-11-23T13:51:01;95675.63;;;11.85;52.36
60228;BME280;46091;46.512;6.626;2022-11-23T13:53:18;95682.31;;;11.87;52.07
60228;BME280;46091;46.512;6.626;2022-11-23T13:55:32;95673.56;;;11.87;52.39
60228;BME280;46091;46.512;6.626;2022-11-23T13:57:36;95679.09;;;11.85;52.17
60228;BME280;46091;46.512;6.626;2022-11-23T13:59:39;95672.53;;;11.88;52.44
60228;BME280;46091;46.512;6.626;2022-11-23T14:02:24;95679.44;;;11.89;52.36
60228;BME280;46091;46.512;6.626;2022-11-23T14:04:29;95680.03;;;11.91;52.45
60228;BME280;46091;46.512;6.626;2022-11-23T14:06:42;95680.25;;;11.89;52.31
60228;BME280;46091;46.512;6.626;2022-11-23T14:08:47;95683.72;;;11.90;52.52
60228;BME280;46091;46.512;6.626;2022-11-23T14:10:53;95673.94;;;11.90;52.35
60228;BME280;46091;46.512;6.626;2022-11-23T14:13:02;95677.38;;;11.91;52.22
60228;BME280;46091;46.512;6.626;2022-11-23T14:15:10;95673.94;;;11.90;52.38
60228;BME280;46091;46.512;6.626;2022-11-23T14:17:34;95675.16;;;11.88;52.60
60228;BME280;46091;46.512;6.626;2022-11-23T14:19:43;95686.00;;;11.86;52.50
60228;BME280;46091;46.512;6.626;2022-11-23T14:22:03;95694.41;;;11.83;52.47
60228;BME280;46091;46.512;6.626;2022-11-23T14:24:24;95689.09;;;11.83;52.58
60228;BME280;46091;46.512;6.626;2022-11-23T14:26:33;95684.63;;;11.84;52.87
60228;BME280;46091;46.512;6.626;2022-11-23T14:28:51;95684.63;;;11.84;52.68
60228;BME280;46091;46.512;6.626;2022-11-23T14:31:06;95680.34;;;11.83;52.62
60228;BME280;46091;46.512;6.626;2022-11-23T14:33:23;95680.13;;;11.84;52.64
60228;BME280;46091;46.512;6.626;2022-11-23T14:35:30;95678.84;;;11.87;53.09
60228;BME280;46091;46.512;6.626;2022-11-23T14:37:40;95667.47;;;11.86;53.16
60228;BME280;46091;46.512;6.626;2022-11-23T14:40:00;95678.84;;;11.87;52.81
60228;BME280;46091;46.512;6.626;2022-11-23T14:42:10;95684.16;;;11.87;53.07
60228;BME280;46091;46.512;6.626;2022-11-23T14:44:22;95688.41;;;11.88;53.17
60228;BME280;46091;46.512;6.626;2022-11-23T14:46:28;95684.97;;;11.87;53.04
60228;BME280;46091;46.512;6.626;2022-11-23T14:48:33;95672.75;;;11.86;53.03
60228;BME280;46091;46.512;6.626;2022-11-23T14:50:37;95683.56;;;11.85;53.37
60228;BME280;46091;46.512;6.626;2022-11-23T14:52:40;95687.50;;;11.82;53.25
60228;BME280;46091;46.512;6.626;2022-11-23T14:54:46;95689.91;;;11.84;53.30
60228;BME280;46091;46.512;6.626;2022-11-23T14:56:51;95682.19;;;11.82;53.50
60228;BME280;46091;46.512;6.626;2022-11-23T14:59:00;95685.66;;;11.83;53.72
60228;BME280;46091;46.512;6.626;2022-11-23T15:01:18;95687.72;;;11.81;53.53
60228;BME280;46091;46.512;6.626;2022-11-23T15:03:26;95687.13;;;11.79;53.81
60228;BME280;46091;46.512;6.626;2022-11-23T15:05:53;95710.75;;;11.80;53.80
60228;BME280;46091;46.512;6.626;2022-11-23T15:08:00;95728.47;;;11.80;53.74
60228;BME280;46091;46.512;6.626;2022-11-23T15:10:10;95731.13;;;11.80;54.12
60228;BME280;46091;46.512;6.626;2022-11-23T15:12:21;95725.84;;;11.80;54.12
60228;BME280;46091;46.512;6.626;2022-11-23T15:14:25;95723.38;;;11.78;54.13
60228;BME280;46091;46.512;6.626;2022-11-23T15:16:28;95743.97;;;11.76;54.50
60228;BME280;46091;46.512;6.626;2022-11-23T15:18:32;95753.97;;;11.74;54.51
60228;BME280;46091;46.512;6.626;2022-11-23T15:20:40;95747.88;;;11.74;54.59
60228;BME280;46091;46.512;6.626;2022-11-23T15:22:47;95755.59;;;11.75;54.43
60228;BME280;46091;46.512;6.626;2022-11-23T15:24:50;95770.66;;;11.75;54.64
60228;BME280;46091;46.512;6.626;2022-11-23T15:27:02;95761.34;;;11.72;54.73
60228;BME280;46091;46.512;6.626;2022-11-23T15:29:27;95782.53;;;11.72;55.04
60228;BME280;46091;46.512;6.626;2022-11-23T15:31:33;95776.41;;;11.72;55.12
60228;BME280;46091;46.512;6.626;2022-11-23T15:33:37;95782.16;;;11.69;55.36
60228;BME280;46091;46.512;6.626;2022-11-23T15:35:40;95767.91;;;11.70;55.44
60228;BME280;46091;46.512;6.626;2022-11-23T15:37:46;95789.09;;;11.70;55.57
60228;BME280;46091;46.512;6.626;2022-11-23T15:39:50;95785.84;;;11.68;55.08
60228;BME280;46091;46.512;6.626;2022-11-23T15:41:54;95785.84;;;11.68;55.42
60228;BME280;46091;46.512;6.626;2022-11-23T15:43:59;95800.13;;;11.66;55.74
60228;BME280;46091;46.512;6.626;2022-11-23T15:46:04;95815.78;;;11.68;55.63
60228;BME280;46091;46.512;6.626;2022-11-23T15:48:15;95817.63;;;11.68;55.93
60228;BME280;46091;46.512;6.626;2022-11-23T15:50:19;95843.28;;;11.67;55.79
60228;BME280;46091;46.512;6.626;2022-11-23T15:52:21;95859.19;;;11.67;55.56
60228;BME280;46091;46.512;6.626;2022-11-23T15:54:31;95871.59;;;11.66;56.03
60228;BME280;46091;46.512;6.626;2022-11-23T15:56:37;95888.31;;;11.67;55.79
60228;BME280;46091;46.512;6.626;2022-11-23T15:58:45;95883.59;;;11.69;56.24
60228;BME280;46091;46.512;6.626;2022-11-23T16:00:50;95888.66;;;11.71;56.08
60228;BME280;46091;46.512;6.626;2022-11-23T16:03:19;95889.69;;;11.70;56.51
60228;BME280;46091;46.512;6.626;2022-11-23T16:05:22;95913.50;;;11.70;56.37
60228;BME280;46091;46.512;6.626;2022-11-23T16:07:26;95937.78;;;11.66;56.38
60228;BME280;46091;46.512;6.626;2022-11-23T16:09:35;95930.66;;;11.67;56.64
60228;BME280;46091;46.512;6.626;2022-11-23T16:11:54;95937.78;;;11.66;56.71
60228;BME280;46091;46.512;6.626;2022-11-23T16:14:12;95923.53;;;11.68;56.53
60228;BME280;46091;46.512;6.626;2022-11-23T16:16:16;95926.75;;;11.70;56.81
60228;BME280;46091;46.512;6.626;2022-11-23T16:18:23;95916.16;;;11.70;56.72
60228;BME280;46091;46.512;6.626;2022-11-23T16:20:29;95933.66;;;11.71;56.86
60228;BME280;46091;46.512;6.626;2022-11-23T16:22:34;95937.94;;;11.72;56.94
60228;BME280;46091;46.512;6.626;2022-11-23T16:24:46;95953.00;;;11.71;57.24
60228;BME280;46091;46.512;6.626;2022-11-23T16:26:52;95944.03;;;11.72;57.12
60228;BME280;46091;46.512;6.626;2022-11-23T16:28:56;95964.63;;;11.70;57.34
60228;BME280;46091;46.512;6.626;2022-11-23T16:31:00;95976.03;;;11.71;57.48
60228;BME280;46091;46.512;6.626;2022-11-23T16:33:03;95977.66;;;11.72;57.41
60228;BME280;46091;46.512;6.626;2022-11-23T16:35:14;95973.97;;;11.73;57.38
60228;BME280;46091;46.512;6.626;2022-11-23T16:37:18;95971.53;;;11.71;57.30
60228;BME280;46091;46.512;6.626;2022-11-23T16:39:22;95960.38;;;11.69;57.58
60228;BME280;46091;46.512;6.626;2022-11-23T16:41:26;95979.72;;;11.70;57.74
60228;BME280;46091;46.512;6.626;2022-11-23T16:43:29;95985.00;;;11.70;57.79
60228;BME280;46091;46.512;6.626;2022-11-23T16:45:32;95990.75;;;11.66;58.21
60228;BME280;46091;46.512;6.626;2022-11-23T16:47:49;95990.13;;;11.64;58.36
60228;BME280;46091;46.512;6.626;2022-11-23T16:49:53;95993.66;;;11.58;58.33
60228;BME280;46091;46.512;6.626;2022-11-23T16:51:56;95994.13;;;11.55;58.49
60228;BME280;46091;46.512;6.626;2022-11-23T16:53:58;96008.34;;;11.54;58.54
60228;BME280;46091;46.512;6.626;2022-11-23T16:56:17;96021.00;;;11.52;58.54
60228;BME280;46091;46.512;6.626;2022-11-23T16:58:22;96034.81;;;11.54;58.57
60228;BME280;46091;46.512;6.626;2022-11-23T17:00:26;96045.34;;;11.61;58.47
60228;BME280;46091;46.512;6.626;2022-11-23T17:02:29;96045.72;;;11.64;58.57
60228;BME280;46091;46.512;6.626;2022-11-23T17:04:31;96058.56;;;11.68;58.72
60228;BME280;46091;46.512;6.626;2022-11-23T17:06:35;96045.31;;;11.68;58.37
60228;BME280;46091;46.512;6.626;2022-11-23T17:08:37;96036.75;;;11.65;58.63
60228;BME280;46091;46.512;6.626;2022-11-23T17:10:40;96038.81;;;11.63;58.94
60228;BME280;46091;46.512;6.626;2022-11-23T17:12:47;96044.09;;;11.63;58.54
60228;BME280;46091;46.512;6.626;2022-11-23T17:14:52;96065.72;;;11.60;58.81
60228;BME280;46091;46.512;6.626;2022-11-23T17:16:55;96076.31;;;11.60;59.06
60228;BME280;46091;46.512;6.626;2022-11-23T17:18:57;96077.13;;;11.61;59.14
60228;BME280;46091;46.512;6.626;2022-11-23T17:21:00;96061.03;;;11.62;58.90
60228;BME280;46091;46.512;6.626;2022-11-23T17:23:03;96065.72;;;11.60;58.84
60228;BME280;46091;46.512;6.626;2022-11-23T17:25:06;96069.41;;;11.59;59.16
60228;BME280;46091;46.512;6.626;2022-11-23T17:27:18;96080.22;;;11.58;59.14
60228;BME280;46091;46.512;6.626;2022-11-23T17:29:21;96101.16;;;11.59;59.46
60228;BME280;46091;46.512;6.626;2022-11-23T17:31:26;96110.72;;;11.60;59.42
60228;BME280;46091;46.512;6.626;2022-11-23T17:33:29;96115.00;;;11.61;59.25
60228;BME280;46091;46.512;6.626;2022-11-23T17:35:31;96117.88;;;11.60;59.26
60228;BME280;46091;46.512;6.626;2022-11-23T17:37:38;96117.88;;;11.60;59.57
60228;BME280;46091;46.512;6.626;2022-11-23T17:39:41;96129.25;;;11.60;59.27